Forside
METAR-TAF:

METAR-TAF

Lufthavne :

South Wood County Airport (Alexander Field)

Wisconsin Rapids, Wisconsin, USA

Breddekreds: 44-21-33N, længdekreds: 089-50-13W, højde: 311 m

Aktuelle vejr

Denne rapport blev lavet for 19 minutter siden, kl. 12:33 UTC
Vind 6 kt fra varierende retninger
Temperatur 1°C
Fugtighed 80%
Tryk 1021 hPa
Sigt: 16.1 km
Nogle få skyer i en højde af 1800 ft
Brudte skyer i en højde af 2500 ft
Overskyet i en højde af 9000 ft

METAR: KISW 241233Z AUTO VRB06KT 10SM FEW018 BKN025 OVC090 01/M02 A3016 RMK AO2 T00111017

Tid: 06:52 (12:52 UTC)


TAF: fraværende

Vejrobservationer og prognoser fra mere end 4000 lufthavne (METAR og TAF).

De gule og røde prikker repræsenterer de meteorologiske stationer.

Flyt musen over at se navnet på stationen.

Så klik over at se vejr observationer og prognoser.

At skifte det kort: Klik på de grønne knapper med et sort kors for at zoome ind; på den grønne knap med en bindestreg for at zoome ud; eller på de grønne pile for tilstødende kort.


METAR-TAF: